HTAR

Arusha Airport

Arusha, Tanzania
METAR HTAR 162200Z 11005KT CAVOK 20/18 Q1017
Observed Flight Rules
Dec-16 @ 22:00 UTC (3 hours ago) Visual Flight Rules
Wind Visibility Clouds
110° at 5 knots 10,000+ meters
  • Clear skies
Temperatures Readings
Current 20°C / 68°F
Dewpoint 18°C / 64°F
Humidity 88%
Altimeter 30.03" Hg
Pressure 1017 hPa
Elevation 1387
METAR HTAR 162200Z 11005KT CAVOK 20/18 Q1017
Observed Flight Rules
Dec-16 @ 22:00 UTC
(3 hours ago)
VFR
Wind Visibility
110° at 5 knots 10,000+ meters
Clouds
  • Clear skies
Temperature Dewpoint
20°C / 68°F 18°C / 64°F
Humidity Altimeter Pressure
88% 30.03" Hg 1017 hPa